createdAt,value
2022-09-17T00:01:17.908Z,99734.63
2022-09-17T00:04:00.232Z,99734.63
2022-09-17T00:06:42.420Z,99740.59
2022-09-17T00:09:36.097Z,99750.63
2022-09-17T00:12:16.641Z,99747.75
2022-09-17T00:15:08.416Z,99742.81
2022-09-17T00:17:47.661Z,99751.81
2022-09-17T00:20:27.607Z,99764.94
2022-09-17T00:23:08.425Z,99758.34
2022-09-17T00:25:48.675Z,99766.97
2022-09-17T00:28:30.513Z,99777.16
2022-09-17T00:31:10.174Z,99792.66
2022-09-17T00:33:49.924Z,99792.31
2022-09-17T00:36:29.619Z,99801.66
2022-09-17T00:39:13.058Z,99804.59
2022-09-17T00:41:52.268Z,99821.75
2022-09-17T00:44:49.469Z,99822.56
2022-09-17T00:47:33.276Z,99830.75
2022-09-17T00:50:38.289Z,99828.28
2022-09-17T00:53:19.647Z,99829.66
2022-09-17T00:56:03.331Z,99844.59
2022-09-17T00:58:56.332Z,99845.63
2022-09-17T01:01:38.669Z,99849.66
2022-09-17T01:04:19.209Z,99863.97
2022-09-17T01:07:05.306Z,99858.00
2022-09-17T01:09:51.430Z,99856.34
2022-09-17T01:12:45.643Z,99862.84
2022-09-17T01:15:29.947Z,99861.69
2022-09-17T01:18:19.036Z,99861.19
2022-09-17T01:21:40.022Z,99864.69
2022-09-17T01:24:50.774Z,99868.34
2022-09-17T01:28:18.669Z,99870.56
2022-09-17T01:31:24.676Z,99886.03
2022-09-17T01:34:14.324Z,99890.53
2022-09-17T01:37:05.427Z,99894.00
2022-09-17T01:39:50.534Z,99903.00
2022-09-17T01:42:36.770Z,99904.38
2022-09-17T01:45:20.629Z,99899.06
2022-09-17T01:48:05.065Z,99907.84
2022-09-17T01:50:50.543Z,99904.38
2022-09-17T01:53:35.534Z,99915.66
2022-09-17T01:56:21.381Z,99918.31
2022-09-17T01:59:07.400Z,99925.94
2022-09-17T02:01:49.218Z,99930.50
2022-09-17T02:04:31.809Z,99935.34
2022-09-17T02:07:14.469Z,99934.00
2022-09-17T02:10:00.314Z,99937.31
2022-09-17T02:12:42.565Z,99940.63
2022-09-17T02:15:27.108Z,99939.63
2022-09-17T02:18:11.801Z,99934.28
2022-09-17T02:21:00.184Z,99943.28
2022-09-17T02:23:44.671Z,99936.50
2022-09-17T02:26:26.323Z,99942.63
2022-09-17T02:29:10.312Z,99946.13
2022-09-17T02:31:51.112Z,99943.28
2022-09-17T02:34:32.018Z,99947.78
2022-09-17T02:37:12.180Z,99954.28
2022-09-17T02:39:51.505Z,99971.25
2022-09-17T02:42:36.688Z,99979.44
2022-09-17T02:45:20.969Z,99973.25
2022-09-17T02:48:22.001Z,99975.13
2022-09-17T02:51:14.935Z,99988.44
2022-09-17T02:53:59.875Z,99995.31
2022-09-17T02:56:46.159Z,99997.31
2022-09-17T02:59:32.486Z,100007.13
2022-09-17T03:02:17.694Z,100000.47
2022-09-17T03:04:57.404Z,100006.97
2022-09-17T03:07:47.495Z,100010.63
2022-09-17T03:10:33.268Z,100002.34
2022-09-17T03:13:12.847Z,100019.97
2022-09-17T03:15:51.553Z,100026.31
2022-09-17T03:18:30.905Z,100030.81
2022-09-17T03:21:12.725Z,100036.31
2022-09-17T03:23:54.104Z,100046.63
2022-09-17T03:26:35.554Z,100043.66
2022-09-17T03:29:14.868Z,100081.53
2022-09-17T03:31:54.738Z,100088.22
2022-09-17T03:34:36.578Z,100085.22
2022-09-17T03:37:18.013Z,100085.22
2022-09-17T03:39:57.341Z,100086.38
2022-09-17T03:42:39.201Z,100083.06
2022-09-17T03:45:17.335Z,100086.25
2022-09-17T03:47:56.943Z,100088.25
2022-09-17T03:50:38.653Z,100092.91
2022-09-17T03:53:29.823Z,100100.69
2022-09-17T03:56:11.537Z,100097.03
2022-09-17T03:58:53.040Z,100101.53
2022-09-17T04:01:34.464Z,100108.34
2022-09-17T04:04:15.996Z,100107.34
2022-09-17T04:06:57.184Z,100108.69
2022-09-17T04:09:36.739Z,100107.34
2022-09-17T04:12:15.160Z,100115.50
2022-09-17T04:14:54.633Z,100111.34
2022-09-17T04:17:34.406Z,100117.81
2022-09-17T04:20:26.321Z,100118.97
2022-09-17T04:23:07.012Z,100113.53
2022-09-17T04:25:49.216Z,100110.69
2022-09-17T04:28:28.653Z,100110.00
2022-09-17T04:31:08.782Z,100120.16
2022-09-17T04:33:50.226Z,100114.84
2022-09-17T04:36:29.661Z,100117.66
2022-09-17T04:39:09.677Z,100120.16
2022-09-17T04:41:49.300Z,100118.00
2022-09-17T04:44:29.092Z,100111.34
2022-09-17T04:47:08.869Z,100113.16
2022-09-17T04:49:48.676Z,100121.31
2022-09-17T04:52:30.975Z,100117.66
2022-09-17T04:55:14.319Z,100122.97
2022-09-17T04:57:54.693Z,100128.44
2022-09-17T05:00:35.662Z,100134.75
2022-09-17T05:03:15.727Z,100140.06
2022-09-17T05:05:57.563Z,100139.91
2022-09-17T05:08:36.938Z,100152.34
2022-09-17T05:11:28.813Z,100156.00
2022-09-17T05:14:08.518Z,100163.31
2022-09-17T05:16:48.129Z,100167.97
2022-09-17T05:19:30.297Z,100177.28
2022-09-17T05:22:11.046Z,100182.09
2022-09-17T05:24:50.836Z,100178.94
2022-09-17T05:27:30.557Z,100185.75
2022-09-17T05:30:12.210Z,100195.06
2022-09-17T05:32:59.596Z,100197.41
2022-09-17T05:35:40.236Z,100200.88
2022-09-17T05:38:19.421Z,100194.22
2022-09-17T05:41:00.266Z,100201.88
2022-09-17T05:43:43.653Z,100203.53
2022-09-17T05:46:35.451Z,100202.38
2022-09-17T05:49:16.000Z,100218.47
2022-09-17T05:51:56.575Z,100214.66
2022-09-17T05:54:36.451Z,100217.31
2022-09-17T05:57:16.863Z,100223.78
2022-09-17T05:59:56.048Z,100229.28
2022-09-17T06:02:36.688Z,100231.09
2022-09-17T06:05:19.289Z,100242.91
2022-09-17T06:07:58.960Z,100241.06
2022-09-17T06:10:41.393Z,100247.34
2022-09-17T06:13:22.257Z,100254.66
2022-09-17T06:16:07.131Z,100258.31
2022-09-17T06:18:50.172Z,100256.66
2022-09-17T06:21:32.480Z,100263.59
2022-09-17T06:24:14.139Z,100269.91
2022-09-17T06:26:53.762Z,100266.63
2022-09-17T06:29:33.152Z,100266.78
2022-09-17T06:32:15.496Z,100268.75
2022-09-17T06:34:57.269Z,100276.72
2022-09-17T06:37:40.168Z,100265.28
2022-09-17T06:40:23.222Z,100264.97
2022-09-17T06:43:05.791Z,100266.13
2022-09-17T06:45:52.676Z,100273.09
2022-09-17T06:48:35.031Z,100272.47
2022-09-17T06:51:27.427Z,100272.31
2022-09-17T06:54:07.199Z,100268.97
2022-09-17T06:56:48.948Z,100278.28
2022-09-17T06:59:28.480Z,100271.81
2022-09-17T07:02:57.692Z,100284.16
2022-09-17T07:05:40.151Z,100293.63
2022-09-17T07:08:19.527Z,100300.94
2022-09-17T07:11:02.933Z,100301.41
2022-09-17T07:13:42.425Z,100298.75
2022-09-17T07:16:22.235Z,100294.28
2022-09-17T07:19:02.045Z,100290.78
2022-09-17T07:21:42.052Z,100292.94
2022-09-17T07:24:21.628Z,100295.94
2022-09-17T07:27:01.618Z,100286.44
2022-09-17T07:29:41.369Z,100291.44
2022-09-17T07:32:21.127Z,100289.91
2022-09-17T07:34:59.631Z,100301.56
2022-09-17T07:37:41.064Z,100294.25
2022-09-17T07:40:20.446Z,100290.25
2022-09-17T07:43:00.311Z,100299.56
2022-09-17T07:45:42.126Z,100302.56
2022-09-17T07:48:22.437Z,100303.06
2022-09-17T07:51:02.949Z,100300.91
2022-09-17T07:53:43.139Z,100303.25
2022-09-17T07:56:25.544Z,100304.84
2022-09-17T07:59:05.752Z,100304.84
2022-09-17T08:01:47.434Z,100308.47
2022-09-17T08:04:26.876Z,100312.47
2022-09-17T08:07:05.629Z,100307.59
2022-09-17T08:09:44.810Z,100316.25
2022-09-17T08:12:24.663Z,100329.72
2022-09-17T08:15:04.772Z,100320.03
2022-09-17T08:17:45.568Z,100325.47
2022-09-17T08:20:26.184Z,100321.38
2022-09-17T08:23:07.849Z,100325.22
2022-09-17T08:25:54.704Z,100323.78
2022-09-17T08:28:35.423Z,100332.34
2022-09-17T08:31:17.605Z,100314.41
2022-09-17T08:34:00.157Z,100323.50
2022-09-17T08:36:40.730Z,100328.47
2022-09-17T08:39:22.529Z,100339.84
2022-09-17T08:42:08.024Z,100334.94
2022-09-17T08:44:51.858Z,100330.19
2022-09-17T08:47:36.644Z,100335.22
2022-09-17T08:50:19.237Z,100348.56
2022-09-17T08:53:10.471Z,100344.38
2022-09-17T08:55:57.235Z,100350.88
2022-09-17T08:59:06.487Z,100364.34
2022-09-17T09:01:55.161Z,100352.69
2022-09-17T09:04:45.597Z,100374.88
2022-09-17T09:07:28.799Z,100372.91
2022-09-17T09:10:15.222Z,100375.13
2022-09-17T09:12:57.677Z,100368.69
2022-09-17T09:15:42.399Z,100380.38
2022-09-17T09:18:24.726Z,100377.78
2022-09-17T09:21:13.626Z,100384.69
2022-09-17T09:23:58.458Z,100370.72
2022-09-17T09:26:45.537Z,100375.91
2022-09-17T09:29:35.774Z,100378.16
2022-09-17T09:32:22.460Z,100382.09
2022-09-17T09:35:23.582Z,100376.53
2022-09-17T09:38:06.879Z,100377.31
2022-09-17T09:41:09.835Z,100376.06
2022-09-17T09:44:13.364Z,100383.50
2022-09-17T09:47:13.284Z,100376.47
2022-09-17T09:50:02.937Z,100388.00
2022-09-17T09:52:52.833Z,100381.78
2022-09-17T09:55:48.573Z,100390.03
2022-09-17T09:58:33.040Z,100380.91
2022-09-17T10:01:29.196Z,100382.47
2022-09-17T10:04:18.452Z,100380.75
2022-09-17T10:07:04.343Z,100384.56
2022-09-17T10:09:46.834Z,100374.69
2022-09-17T10:12:28.794Z,100367.66
2022-09-17T10:15:25.524Z,100375.88
2022-09-17T10:18:51.084Z,100374.69
2022-09-17T10:21:34.404Z,100373.06
2022-09-17T10:24:24.109Z,100358.16
2022-09-17T10:27:08.074Z,100372.19
2022-09-17T10:29:51.964Z,100370.03
2022-09-17T10:32:32.477Z,100359.25
2022-09-17T10:38:04.093Z,100366.88
2022-09-17T10:40:43.747Z,100367.31
2022-09-17T10:43:24.819Z,100363.78
2022-09-17T10:46:09.527Z,100368.31
2022-09-17T10:48:55.555Z,100363.97
2022-09-17T10:51:38.052Z,100360.72
2022-09-17T10:55:06.184Z,100352.44
2022-09-17T10:57:56.861Z,100347.06
2022-09-17T11:00:47.847Z,100353.72
2022-09-17T11:04:11.724Z,100352.91
2022-09-17T11:07:11.150Z,100353.75
2022-09-17T11:09:55.727Z,100353.56
2022-09-17T11:12:44.181Z,100362.91
2022-09-17T11:15:44.221Z,100374.22
2022-09-17T11:18:41.072Z,100373.53
2022-09-17T11:21:38.701Z,100365.88
2022-09-17T11:24:48.935Z,100371.22
2022-09-17T11:27:52.857Z,100374.69
2022-09-17T11:30:34.960Z,100380.25
2022-09-17T11:33:37.314Z,100367.19
2022-09-17T11:36:20.829Z,100368.81
2022-09-17T11:39:08.728Z,100364.97
2022-09-17T11:41:50.746Z,100353.84
2022-09-17T11:44:34.306Z,100361.28
2022-09-17T11:47:17.048Z,100359.69
2022-09-17T11:50:01.821Z,100352.13
2022-09-17T11:52:46.400Z,100346.78
2022-09-17T11:55:32.674Z,100357.75
2022-09-17T11:58:29.429Z,100349.72
2022-09-17T12:01:12.749Z,100350.34
2022-09-17T12:03:54.641Z,100350.88
2022-09-17T12:06:41.299Z,100352.25
2022-09-17T12:09:23.185Z,100352.19
2022-09-17T12:12:07.597Z,100352.97
2022-09-17T12:14:50.261Z,100351.28
2022-09-17T12:17:37.718Z,100353.69
2022-09-17T12:20:24.768Z,100338.41
2022-09-17T12:23:41.326Z,100342.44
2022-09-17T12:26:29.568Z,100332.53
2022-09-17T12:29:17.865Z,100339.94
2022-09-17T12:32:04.021Z,100399.75
2022-09-17T12:34:51.935Z,100382.97
2022-09-17T12:37:39.014Z,100368.97
2022-09-17T12:40:29.511Z,100366.06
2022-09-17T12:43:28.725Z,100352.84
2022-09-17T12:46:18.993Z,100342.16
2022-09-17T12:49:22.004Z,100329.47
2022-09-17T12:52:04.854Z,100316.22
2022-09-17T12:55:00.727Z,100310.94
2022-09-17T12:57:45.311Z,100301.66
2022-09-17T13:00:25.982Z,100294.84
2022-09-17T13:03:16.397Z,100286.34
2022-09-17T13:06:18.904Z,100281.47
2022-09-17T13:09:28.169Z,100277.44
2022-09-17T13:12:15.049Z,100270.38
2022-09-17T13:15:25.122Z,100263.47
2022-09-17T13:18:26.286Z,100267.44
2022-09-17T13:21:14.197Z,100249.03
2022-09-17T13:23:56.236Z,100258.03
2022-09-17T13:26:39.610Z,100259.34
2022-09-17T13:29:51.942Z,100275.44
2022-09-17T13:32:52.226Z,100319.13
2022-09-17T13:35:52.003Z,100295.09
2022-09-17T13:38:41.821Z,100277.69
2022-09-17T13:41:25.586Z,100275.78
2022-09-17T13:44:08.414Z,100279.91
2022-09-17T13:46:48.489Z,100273.75
2022-09-17T13:49:28.316Z,100265.00
2022-09-17T13:52:11.697Z,100277.41
2022-09-17T13:54:52.932Z,100255.44
2022-09-17T13:57:47.132Z,100249.81
2022-09-17T14:00:51.125Z,100235.50
2022-09-17T14:03:53.628Z,100221.88
2022-09-17T14:06:54.041Z,100226.56
2022-09-17T14:09:51.989Z,100209.94
2022-09-17T14:13:11.307Z,100212.59
2022-09-17T14:16:02.609Z,100206.94
2022-09-17T14:18:49.483Z,100200.28
2022-09-17T14:21:35.784Z,100192.28
2022-09-17T14:24:22.184Z,100189.56
2022-09-17T14:27:45.729Z,100191.19
2022-09-17T14:30:27.852Z,100177.16
2022-09-17T14:33:12.793Z,100189.50
2022-09-17T14:35:58.340Z,100185.16
2022-09-17T14:38:52.881Z,100197.81
2022-09-17T14:41:36.890Z,100182.78
2022-09-17T14:44:37.669Z,100182.41
2022-09-17T14:47:20.026Z,100176.41
2022-09-17T14:50:22.453Z,100178.41
2022-09-17T14:53:09.024Z,100181.66
2022-09-17T14:55:51.351Z,100193.69
2022-09-17T14:58:36.021Z,100192.84
2022-09-17T15:01:23.563Z,100195.56
2022-09-17T15:04:24.122Z,100202.88
2022-09-17T15:07:13.819Z,100198.72
2022-09-17T15:09:55.562Z,100197.91
2022-09-17T15:12:38.637Z,100211.88
2022-09-17T15:15:21.598Z,100203.69
2022-09-17T15:18:03.529Z,100203.22
2022-09-17T15:20:43.332Z,100210.06
2022-09-17T15:23:28.056Z,100216.41
2022-09-17T15:26:09.739Z,100224.22
2022-09-17T15:29:05.445Z,100220.78
2022-09-17T15:31:44.849Z,100213.47
2022-09-17T15:34:24.927Z,100235.63
2022-09-17T15:37:08.794Z,100211.81
2022-09-17T15:39:55.676Z,100217.84
2022-09-17T15:42:35.530Z,100223.53
2022-09-17T15:45:39.236Z,100228.88
2022-09-17T15:48:34.217Z,100228.22
2022-09-17T15:51:26.191Z,100231.88
2022-09-17T15:54:31.124Z,100241.19
2022-09-17T15:57:15.785Z,100242.22
2022-09-17T15:59:55.743Z,100239.53
2022-09-17T16:02:36.268Z,100237.38
2022-09-17T16:05:56.327Z,100230.22
2022-09-17T16:08:38.728Z,100233.06
2022-09-17T16:11:40.351Z,100231.41
2022-09-17T16:14:20.092Z,100235.88
2022-09-17T16:17:01.123Z,100233.22
2022-09-17T16:20:15.318Z,100234.91
2022-09-17T16:22:57.265Z,100245.03
2022-09-17T16:25:39.061Z,100228.75
2022-09-17T16:28:20.633Z,100234.38
2022-09-17T16:31:01.426Z,100229.91
2022-09-17T16:33:42.768Z,100226.44
2022-09-17T16:36:36.180Z,100236.75
2022-09-17T16:39:16.991Z,100232.13
2022-09-17T16:41:57.225Z,100237.47
2022-09-17T16:44:37.455Z,100237.13
2022-09-17T16:47:16.162Z,100237.13
2022-09-17T16:49:55.839Z,100238.66
2022-09-17T16:52:36.254Z,100240.53
2022-09-17T16:55:18.733Z,100253.66
2022-09-17T16:57:59.811Z,100254.31
2022-09-17T17:00:43.466Z,100259.97
2022-09-17T17:03:23.643Z,100252.34
2022-09-17T17:06:04.243Z,100247.03
2022-09-17T17:08:46.115Z,100232.88
2022-09-17T17:11:29.332Z,100239.22
2022-09-17T17:14:14.795Z,100238.22
2022-09-17T17:16:55.843Z,100248.16
2022-09-17T17:19:36.809Z,100248.03
2022-09-17T17:22:17.290Z,100251.34
2022-09-17T17:24:57.676Z,100252.84
2022-09-17T17:27:39.681Z,100252.16
2022-09-17T17:30:40.965Z,100248.50
2022-09-17T17:33:22.728Z,100255.34
2022-09-17T17:36:08.188Z,100255.34
2022-09-17T17:38:48.588Z,100266.81
2022-09-17T17:41:29.636Z,100271.66
2022-09-17T17:44:12.528Z,100274.13
2022-09-17T17:47:12.377Z,100271.81
2022-09-17T17:49:51.787Z,100269.66
2022-09-17T17:52:32.899Z,100279.47
2022-09-17T17:55:12.553Z,100279.81
2022-09-17T17:58:00.399Z,100274.31
2022-09-17T18:00:41.952Z,100270.69
2022-09-17T18:03:25.070Z,100272.84
2022-09-17T18:06:06.945Z,100269.34
2022-09-17T18:08:47.524Z,100268.00
2022-09-17T18:11:26.585Z,100271.66
2022-09-17T18:14:07.272Z,100273.00
2022-09-17T18:16:46.252Z,100275.66
2022-09-17T18:19:26.656Z,100274.84
2022-09-17T18:22:05.632Z,100270.00
2022-09-17T18:24:46.894Z,100279.81
2022-09-17T18:27:29.780Z,100275.00
2022-09-17T18:30:11.192Z,100281.97
2022-09-17T18:32:53.037Z,100285.63
2022-09-17T18:35:38.757Z,100279.97
2022-09-17T18:38:19.458Z,100285.78
2022-09-17T18:41:05.607Z,100289.44
2022-09-17T18:43:45.941Z,100284.28
2022-09-17T18:46:26.030Z,100287.63
2022-09-17T18:49:06.187Z,100289.97
2022-09-17T18:51:48.850Z,100297.13
2022-09-17T18:54:28.306Z,100290.97
2022-09-17T18:57:10.135Z,100290.78
2022-09-17T18:59:51.121Z,100294.94
2022-09-17T19:02:30.947Z,100296.94
2022-09-17T19:05:09.860Z,100286.66
2022-09-17T19:07:52.183Z,100298.94
2022-09-17T19:10:33.668Z,100291.63
2022-09-17T19:13:13.378Z,100303.09
2022-09-17T19:15:53.411Z,100298.94
2022-09-17T19:18:34.065Z,100299.59
2022-09-17T19:21:15.883Z,100300.91
2022-09-17T19:23:55.844Z,100305.94
2022-09-17T19:26:51.070Z,100307.59
2022-09-17T19:29:34.132Z,100312.91
2022-09-17T19:32:28.720Z,100323.34
2022-09-17T19:35:09.521Z,100329.19
2022-09-17T19:37:50.648Z,100332.81
2022-09-17T19:40:31.068Z,100354.59
2022-09-17T19:43:15.004Z,100359.25
2022-09-17T19:46:02.458Z,100360.75
2022-09-17T19:48:46.570Z,100369.88
2022-09-17T19:51:29.833Z,100369.91
2022-09-17T19:54:10.212Z,100382.66
2022-09-17T19:56:52.642Z,100378.88
2022-09-17T19:59:35.623Z,100387.31
2022-09-17T20:02:18.923Z,100383.81
2022-09-17T20:04:59.635Z,100386.66
2022-09-17T20:07:39.392Z,100393.63
2022-09-17T20:10:19.301Z,100398.09
2022-09-17T20:13:22.382Z,100403.91
2022-09-17T20:16:05.681Z,100399.38
2022-09-17T20:18:44.806Z,100409.84
2022-09-17T20:21:28.769Z,100411.84
2022-09-17T20:24:21.074Z,100404.97
2022-09-17T20:27:06.113Z,100413.66
2022-09-17T20:29:46.460Z,100409.16
2022-09-17T20:32:26.344Z,100410.84
2022-09-17T20:35:06.680Z,100401.88
2022-09-17T20:40:50.332Z,100405.13
2022-09-17T20:43:35.597Z,100410.47
2022-09-17T20:46:29.229Z,100412.94
2022-09-17T20:49:12.201Z,100416.41
2022-09-17T20:51:53.146Z,100424.66
2022-09-17T20:54:31.747Z,100424.22
2022-09-17T20:57:11.188Z,100427.19
2022-09-17T20:59:53.404Z,100432.50
2022-09-17T21:02:34.157Z,100425.97
2022-09-17T21:05:14.510Z,100429.94
2022-09-17T21:07:54.952Z,100434.41
2022-09-17T21:10:34.760Z,100431.94
2022-09-17T21:13:14.597Z,100432.91
2022-09-17T21:15:58.501Z,100428.59
2022-09-17T21:18:41.680Z,100439.16
2022-09-17T21:21:22.041Z,100434.69
2022-09-17T21:24:02.205Z,100435.16
2022-09-17T21:26:41.577Z,100439.31
2022-09-17T21:29:21.580Z,100440.97
2022-09-17T21:32:01.341Z,100441.50
2022-09-17T21:34:39.851Z,100443.47
2022-09-17T21:37:19.185Z,100451.16
2022-09-17T21:39:59.102Z,100445.13
2022-09-17T21:42:40.846Z,100452.13
2022-09-17T21:45:22.253Z,100446.69
2022-09-17T21:48:03.719Z,100450.78
2022-09-17T21:51:04.808Z,100453.09
2022-09-17T21:53:44.642Z,100448.78
2022-09-17T21:56:24.807Z,100453.59
2022-09-17T21:59:07.445Z,100453.81
2022-09-17T22:01:48.458Z,100445.78
2022-09-17T22:04:28.289Z,100451.75
2022-09-17T22:07:08.098Z,100446.94
2022-09-17T22:09:49.959Z,100455.06
2022-09-17T22:12:31.375Z,100457.03
2022-09-17T22:15:11.251Z,100456.56
2022-09-17T22:17:50.469Z,100457.09
2022-09-17T22:20:31.678Z,100456.56
2022-09-17T22:23:11.724Z,100472.81
2022-09-17T22:26:01.215Z,100456.38
2022-09-17T22:28:40.937Z,100466.16
2022-09-17T22:31:21.258Z,100465.75
2022-09-17T22:34:18.118Z,100461.44
2022-09-17T22:37:00.810Z,100462.56
2022-09-17T22:39:39.949Z,100461.59
2022-09-17T22:42:19.724Z,100467.06
2022-09-17T22:44:59.530Z,100466.44
2022-09-17T22:47:41.029Z,100465.78
2022-09-17T22:50:20.854Z,100459.94
2022-09-17T22:53:00.572Z,100460.41
2022-09-17T22:55:40.375Z,100460.56
2022-09-17T22:58:21.627Z,100455.41
2022-09-17T23:01:04.669Z,100454.16
2022-09-17T23:03:45.766Z,100454.78
2022-09-17T23:06:27.693Z,100454.09
2022-09-17T23:09:07.784Z,100449.63
2022-09-17T23:11:47.240Z,100448.66
2022-09-17T23:14:39.612Z,100444.13
2022-09-17T23:17:39.425Z,100440.91
2022-09-17T23:20:19.235Z,100441.47
2022-09-17T23:23:01.322Z,100439.09
2022-09-17T23:25:40.476Z,100437.41
2022-09-17T23:28:20.264Z,100435.69
2022-09-17T23:31:00.089Z,100433.72
2022-09-17T23:33:42.231Z,100431.53
2022-09-17T23:36:24.526Z,100432.88
2022-09-17T23:39:07.992Z,100437.34
2022-09-17T23:41:49.273Z,100435.69
2022-09-17T23:44:30.699Z,100435.59
2022-09-17T23:47:12.166Z,100432.50
2022-09-17T23:49:53.500Z,100444.09
2022-09-17T23:52:32.945Z,100443.78
2022-09-17T23:55:14.724Z,100446.28
2022-09-17T23:57:54.125Z,100446.28
